Record high temperature 38.5°C Record low temperature -6.1°C Record high gust 94.9 km/h Record high average 70.9 km/h Record daily rain 58.2 mm Record low windchill -9.9°C Record high barometer 1045.9 hPa Record low barometer 985.2 hPa
Daily high pressure 1019.6 hPa Daily low pressure 1016.2 hPa Daily low windchill 14.6°C Daily high heat index 15.0°C Daily high gust speed 11.3 kmh WSW Daily high average speed 7.6 kmh WSW
Stazione meteo Crema centro
ULTIMO RILEVAMENTO ALLE ORE: 03:55 GIORNO: 21 Ottobre 2021 prossimo aggiornamento ore: 04:00
Tempo presenteNight time/Dry/Molto nuvoloso Temperatura attuale 14.6°C (58.3°F), temperatura apparente 14.2°C
Temperatura massima (da mezzanotte)15.0°C alle ore: 01:11 Temperatura minima (da mezzanotte)14.6°C alle ore: 02:46
Forza media vento (dieci minuti)5.7 kmh (3.1 kts) Direzione vento (dieci minuti)W (275°)
Temperatura vento 14.6°C Massima forza (ultima ora)11.3 kmh (6.1 kts) alle ore: 03:45
Massima forza (da mezzanotte)11.3 kmh (6.1 kts) alle ore: 03:45 Massimo vento 1 minuto (da mezzanotte)7.6 kmh (4.1 kts) alle ore: 03:12
Pioggia (ultima ora)0.0 mm Pioggia (da mezzanotte)0.0 mm (0.00 in.)---
Pioggia Questo mese 45.0 mm (1.77 in.) Pioggia Questo anno 444.0 mm (17.48 in.)
Massima pioggia per minuto (ultima ora)0.0 mm/min Massima pioggia per ora (ultime 6 ore)0.0 mm/ore
Pioggia di ieri 0.0 mm DewPoint 13.0°C (Wet Bulb :13.7°C )
Umidita 90 %, Humidex 17.4°C Pressione S.L.M.1016.2 hPa (QNH 1016.2 hPa
Variazione pressione -1.4 hPa (ultima ora) Tendenza (ultime 1 ore)In diminuzione
Variazione pressione (ultime 12 ore)-6.7 hPa Variazione pressione (ultime 6 ore)-4.8 hPa
Current Solar 0 W/mē
Maximum solar (da mezzanotte) 0 W/mē Minimum solar (da mezzanotte)0 W/mē
Current 00:00 hours of sunshine today, current sky: Night time/Dry/Molto nuvoloso
Sunshine hours for the year: 1659:23 hrs Sunshine hours for the month: 96:11 hrs
Current evapotranspiration rate 0.2 mm per day. Yesterday's reading 0.8

Questa pagina e` aggiornata con i dati della stazione meteo DAVIS VP Premere Reload o Refresh per facilitare la lettura dei dati aggiornati.

Status report of weather station: IK2CHZ - Crema meteo



Weather report/warning/Metars

Milano / Linate, Italy (LIML) 45-26N 009-17E 103M
Oct 20, 2021 - 09:20 PM EDT / 2021.10.21 0120 UTC
Wind: from the SE (140 degrees) at 7 MPH (6 KT):0
Visibility: 1 mile(s):0
Sky conditions: mostly cloudy
Weather: light rain; mist
Temperature: 57 F (14 C)
Dew Point: 57 F (14 C)
Relative Humidity: 100%
Pressure (altimeter): 30.03 in. Hg (1017 hPa)
ob: LIML 210120Z 14006KT 3000 -RA BR BKN040 14/14 Q1017 NOSIG
cycle: 1
Bergamo / Orio Al Serio, Italy (LIME) 45-40N 009-42E 237M
Oct 20, 2021 - 09:20 PM EDT / 2021.10.21 0120 UTC
Wind: Variable at 2 MPH (2 KT):0
Visibility: 4 mile(s):0
Sky conditions: mostly cloudy
Weather: light drizzle
Temperature: 57 F (14 C)
Dew Point: 55 F (13 C)
Relative Humidity: 93%
Pressure (altimeter): 30.03 in. Hg (1017 hPa)
ob: LIME 210120Z VRB02KT 7000 -DZ BKN045 14/13 Q1017 NOSIG
cycle: 1
Piacenza, Italy (LIMS) 44-55N 009-44E 138M
Oct 20, 2021 - 01:55 PM EDT / 2021.10.20 1755 UTC
Wind: from the SW (220 degrees) at 5 MPH (4 KT):0
Visibility: 3 mile(s):0
Sky conditions: mostly cloudy
Weather: mist
Temperature: 59 F (15 C)
Dew Point: 59 F (15 C)
Relative Humidity: 100%
Pressure (altimeter): 30.15 in. Hg (1021 hPa)
ob: LIMS 201755Z 22004KT 5000 BR BKN060 15/15 Q1021
cycle: 18